Time;durP1;ratioP1;P1;durP2;ratioP2;P2;SDS_P1;SDS_P2;PMS_P1;PMS_P2;Temp;Humidity;BMP_temperature;BMP_pressure;BME280_temperature;BME280_humidity;BME280_pressure;Samples;Min_cycle;Max_cycle;Signal;HPM_P1;HPM_P2
2022/11/13 00:00:56;;;;;;;29.30;22.67;;;7.00;99.90;;;;;;5016340;28;20285;-78
2022/11/13 00:03:22;;;;;;;24.13;18.70;;;7.00;99.90;;;;;;5015390;28;20358;-79
2022/11/13 00:05:47;;;;;;;27.10;20.60;;;7.10;99.90;;;;;;5015141;28;20042;-79
2022/11/13 00:08:13;;;;;;;24.17;19.40;;;7.00;99.90;;;;;;4999737;28;20296;-80
2022/11/13 00:10:39;;;;;;;23.30;19.20;;;7.00;99.90;;;;;;5015932;28;20532;-79
2022/11/13 00:13:05;;;;;;;22.33;18.43;;;7.00;99.90;;;;;;5016263;28;20281;-79
2022/11/13 00:15:31;;;;;;;24.97;17.83;;;7.00;99.90;;;;;;5016977;28;20046;-80
2022/11/13 00:18:01;;;;;;;23.33;18.73;;;7.00;99.90;;;;;;5016339;28;20463;-79
2022/11/13 00:20:27;;;;;;;23.00;19.50;;;7.00;99.90;;;;;;5015321;28;20386;-80
2022/11/13 00:22:52;;;;;;;22.63;17.77;;;7.00;99.90;;;;;;5015054;28;20297;-79
2022/11/13 00:25:18;;;;;;;22.57;17.77;;;7.10;99.90;;;;;;5015959;28;20046;-79
2022/11/13 00:27:43;;;;;;;20.83;16.13;;;7.00;99.90;;;;;;5016194;28;20045;-80
2022/11/13 00:30:10;;;;;;;21.37;15.60;;;7.00;99.90;;;;;;5016176;28;20046;-79
2022/11/13 00:32:36;;;;;;;21.57;16.93;;;7.00;99.90;;;;;;5015795;28;20081;-78
2022/11/13 00:35:03;;;;;;;24.60;16.73;;;7.00;99.90;;;;;;5016351;28;20637;-78
2022/11/13 00:37:29;;;;;;;19.37;14.70;;;7.00;99.90;;;;;;5014404;28;20292;-78
2022/11/13 00:39:54;;;;;;;19.23;15.67;;;7.00;99.90;;;;;;5014444;28;20296;-78
2022/11/13 00:42:20;;;;;;;22.30;16.87;;;7.00;99.90;;;;;;5015405;28;20107;-78
2022/11/13 00:44:46;;;;;;;18.90;14.57;;;7.10;99.90;;;;;;5015910;28;20046;-77
2022/11/13 00:47:11;;;;;;;19.37;13.90;;;7.10;99.90;;;;;;5015566;28;20405;-77
2022/11/13 00:49:37;;;;;;;18.87;13.83;;;7.10;99.90;;;;;;5016013;28;20042;-77
2022/11/13 00:52:03;;;;;;;17.90;12.30;;;7.00;99.90;;;;;;5016300;28;20438;-77
2022/11/13 00:54:29;;;;;;;17.90;12.63;;;7.00;99.90;;;;;;5015420;28;20050;-78
2022/11/13 00:56:54;;;;;;;18.57;12.90;;;7.00;99.90;;;;;;5014110;28;20402;-77
2022/11/13 00:59:20;;;;;;;15.67;12.57;;;6.90;99.90;;;;;;5015048;28;20135;-78
2022/11/13 01:01:46;;;;;;;15.87;13.63;;;7.00;99.90;;;;;;5013960;28;20108;-77
2022/11/13 01:04:11;;;;;;;15.57;12.67;;;7.00;99.90;;;;;;5013743;28;20585;-77
2022/11/13 01:06:37;;;;;;;17.27;13.13;;;7.00;99.90;;;;;;5015706;28;20129;-77
2022/11/13 01:09:03;;;;;;;17.23;13.43;;;7.00;99.90;;;;;;5013967;28;20046;-77
2022/11/13 01:11:29;;;;;;;16.13;13.70;;;7.00;99.90;;;;;;5014899;28;20088;-77
2022/11/13 01:13:55;;;;;;;15.20;12.20;;;7.00;99.90;;;;;;5015051;28;20105;-77
2022/11/13 01:16:24;;;;;;;14.87;13.13;;;7.00;99.90;;;;;;5014256;28;20380;-78
2022/11/13 01:18:54;;;;;;;16.20;12.80;;;7.00;99.90;;;;;;5015668;28;20305;-77
2022/11/13 01:21:26;;;;;;;17.30;13.37;;;7.00;99.90;;;;;;5015821;28;20803;-83
2022/11/13 01:23:53;;;;;;;18.63;12.70;;;7.00;99.90;;;;;;5014987;28;20321;-78
2022/11/13 01:26:27;;;;;;;17.40;12.50;;;7.00;99.90;;;;;;5014835;28;20273;-77
2022/11/13 01:28:53;;;;;;;15.27;11.87;;;7.00;99.90;;;;;;5014865;28;20276;-77
2022/11/13 01:31:25;;;;;;;16.20;11.57;;;7.00;99.90;;;;;;5015286;28;20653;-78
2022/11/13 01:33:51;;;;;;;16.43;12.10;;;7.00;99.90;;;;;;4997233;28;20331;-78
2022/11/13 01:36:20;;;;;;;16.13;12.70;;;7.10;99.90;;;;;;5015159;28;20578;-77
2022/11/13 01:38:46;;;;;;;16.10;12.60;;;7.10;99.90;;;;;;5014283;28;20729;-78
2022/11/13 01:41:17;;;;;;;16.03;11.07;;;7.10;99.90;;;;;;5015404;28;20331;-77
2022/11/13 01:43:43;;;;;;;14.53;11.63;;;7.10;99.90;;;;;;5013610;28;20053;-78
2022/11/13 01:46:39;;;;;;;15.70;12.57;;;7.10;99.90;;;;;;5013502;28;20285;-78
2022/11/13 01:49:08;;;;;;;18.87;11.80;;;7.10;99.90;;;;;;5011927;28;20308;-77
2022/11/13 01:51:41;;;;;;;16.97;11.67;;;7.10;99.90;;;;;;5013676;28;20289;-78
2022/11/13 01:54:13;;;;;;;14.47;11.30;;;7.10;99.90;;;;;;5014914;28;20280;-78
2022/11/13 01:56:39;;;;;;;14.33;11.13;;;7.20;99.90;;;;;;5014192;28;20351;-78
2022/11/13 01:59:09;;;;;;;16.97;12.67;;;7.20;99.90;;;;;;5014160;28;20338;-78
2022/11/13 02:01:35;;;;;;;16.37;13.53;;;7.20;99.90;;;;;;5013161;28;20301;-78
2022/11/13 02:04:00;;;;;;;15.10;12.77;;;7.20;99.90;;;;;;5014199;28;20315;-77
2022/11/13 02:06:34;;;;;;;17.17;12.63;;;7.20;99.90;;;;;;4996822;28;20045;-78
2022/11/13 02:09:00;;;;;;;14.50;11.93;;;7.20;99.90;;;;;;5014394;28;20097;-78
2022/11/13 02:11:26;;;;;;;15.77;12.93;;;7.20;99.90;;;;;;5012744;28;20665;-85
2022/11/13 02:13:52;;;;;;;17.37;12.57;;;7.20;99.90;;;;;;5013773;28;20060;-78
2022/11/13 02:16:19;;;;;;;14.60;11.93;;;7.20;99.90;;;;;;5014790;28;20344;-78
2022/11/13 02:18:45;;;;;;;16.10;11.93;;;7.20;99.90;;;;;;5014147;28;20390;-78
2022/11/13 02:21:30;;;;;;;19.20;12.93;;;7.30;99.90;;;;;;5013065;28;20768;-78
2022/11/13 02:24:19;;;;;;;20.38;14.30;;;7.30;99.90;;;;;;5014082;28;20061;-78
2022/11/13 02:26:45;;;;;;;17.60;12.57;;;7.30;99.90;;;;;;4995916;28;20054;-78
2022/11/13 02:29:10;;;;;;;15.57;12.33;;;7.20;99.90;;;;;;5013253;28;20301;-78
2022/11/13 02:31:36;;;;;;;16.70;13.30;;;7.30;99.90;;;;;;5012629;28;20370;-78
2022/11/13 02:34:02;;;;;;;15.53;13.00;;;7.30;99.90;;;;;;5013188;28;20134;-78
2022/11/13 02:36:29;;;;;;;21.70;14.77;;;7.30;99.90;;;;;;5014412;28;20050;-78
2022/11/13 02:38:58;;;;;;;14.27;12.53;;;7.20;99.90;;;;;;5012687;28;20309;-78
2022/11/13 02:41:23;;;;;;;18.57;13.93;;;7.30;99.90;;;;;;5013830;28;20288;-78
2022/11/13 02:43:49;;;;;;;18.23;13.90;;;7.30;99.90;;;;;;5012568;28;20287;-78
2022/11/13 02:46:15;;;;;;;17.57;13.77;;;7.20;99.90;;;;;;5012801;28;20049;-78
2022/11/13 02:48:41;;;;;;;18.87;13.90;;;7.30;99.90;;;;;;5014254;28;20474;-79
2022/11/13 02:51:06;;;;;;;22.57;14.00;;;7.20;99.90;;;;;;5013749;28;20057;-78
2022/11/13 02:53:32;;;;;;;17.20;13.87;;;7.20;99.90;;;;;;5012528;28;20045;-79
2022/11/13 02:55:58;;;;;;;16.53;13.60;;;7.20;99.90;;;;;;5012538;28;20069;-78
2022/11/13 02:58:23;;;;;;;19.63;14.37;;;7.20;99.90;;;;;;5013540;28;20081;-78
2022/11/13 03:00:49;;;;;;;18.43;13.70;;;7.20;99.90;;;;;;5013109;28;20050;-78
2022/11/13 03:03:15;;;;;;;17.90;14.73;;;7.10;99.90;;;;;;5014441;28;20081;-78
2022/11/13 03:05:40;;;;;;;21.13;14.87;;;7.10;99.90;;;;;;5014097;28;20359;-79
2022/11/13 03:08:06;;;;;;;17.03;13.63;;;7.10;99.90;;;;;;5013830;28;20050;-78
2022/11/13 03:10:32;;;;;;;17.97;15.47;;;7.20;99.90;;;;;;4996321;28;20046;-78
2022/11/13 03:12:58;;;;;;;18.80;15.00;;;7.20;99.90;;;;;;5013546;28;20049;-78
2022/11/13 03:15:23;;;;;;;18.57;15.40;;;7.20;99.90;;;;;;5011998;28;20061;-78
2022/11/13 03:17:49;;;;;;;17.30;14.93;;;7.20;99.90;;;;;;4996836;28;20058;-78
2022/11/13 03:20:16;;;;;;;19.10;16.40;;;7.20;99.90;;;;;;5014496;28;20093;-79
2022/11/13 03:22:41;;;;;;;17.17;15.27;;;7.20;99.90;;;;;;5017063;28;20371;-79
2022/11/13 03:25:07;;;;;;;17.80;15.17;;;7.10;99.90;;;;;;5016401;28;20367;-79
2022/11/13 03:27:33;;;;;;;19.70;15.10;;;7.20;99.90;;;;;;5017072;28;20057;-79
2022/11/13 03:29:59;;;;;;;17.57;15.70;;;7.20;99.90;;;;;;5016984;28;20081;-78
2022/11/13 03:32:24;;;;;;;20.70;15.63;;;7.20;99.90;;;;;;5017486;28;20046;-78
2022/11/13 03:34:50;;;;;;;18.67;14.57;;;7.20;99.90;;;;;;5015956;28;20077;-78
2022/11/13 03:37:16;;;;;;;18.87;15.60;;;7.20;99.90;;;;;;5016924;28;20056;-78
2022/11/13 03:39:41;;;;;;;20.10;15.40;;;7.20;99.90;;;;;;5017200;28;20050;-79
2022/11/13 03:42:07;;;;;;;18.77;15.53;;;7.20;99.90;;;;;;5017370;28;20046;-79
2022/11/13 03:44:32;;;;;;;19.43;16.27;;;7.20;99.90;;;;;;5015769;28;20046;-78
2022/11/13 03:46:58;;;;;;;19.10;15.90;;;7.20;99.90;;;;;;5016715;28;20135;-79
2022/11/13 03:49:24;;;;;;;19.43;16.17;;;7.20;99.90;;;;;;5032964;28;20459;-78
2022/11/13 03:51:49;;;;;;;21.03;16.83;;;7.20;99.90;;;;;;5016006;28;20085;-78
2022/11/13 03:54:15;;;;;;;19.47;15.93;;;7.20;99.90;;;;;;5017378;28;20052;-78
2022/11/13 03:56:41;;;;;;;21.43;16.07;;;7.20;99.90;;;;;;5016409;28;20099;-78
2022/11/13 03:59:07;;;;;;;23.20;16.27;;;7.20;99.90;;;;;;5015019;28;20046;-78
2022/11/13 04:01:32;;;;;;;20.07;16.07;;;7.20;99.90;;;;;;5016604;28;20058;-78
2022/11/13 04:03:58;;;;;;;20.93;16.73;;;7.20;99.90;;;;;;5016243;28;20061;-78
2022/11/13 04:06:24;;;;;;;19.40;16.50;;;7.20;99.90;;;;;;5016166;28;20402;-78
2022/11/13 04:08:49;;;;;;;21.17;16.70;;;7.20;99.90;;;;;;5016114;28;20046;-78
2022/11/13 04:11:15;;;;;;;21.60;16.50;;;7.20;99.90;;;;;;5015817;28;20459;-78
2022/11/13 04:13:41;;;;;;;23.50;17.67;;;7.30;99.90;;;;;;5014839;28;20092;-82
2022/11/13 04:16:06;;;;;;;20.40;16.33;;;7.20;99.90;;;;;;5015990;28;20046;-78
2022/11/13 04:18:32;;;;;;;22.80;16.70;;;7.20;99.90;;;;;;5014761;28;20132;-78
2022/11/13 04:21:03;;;;;;;21.00;17.17;;;7.30;99.90;;;;;;5015140;28;20390;-78
2022/11/13 04:23:29;;;;;;;22.93;18.60;;;7.30;99.90;;;;;;5015219;28;20062;-78
2022/11/13 04:25:55;;;;;;;22.07;18.27;;;7.30;99.90;;;;;;5014631;28;20280;-79
2022/11/13 04:28:21;;;;;;;23.17;17.33;;;7.30;99.90;;;;;;5014614;28;20280;-78
2022/11/13 04:30:47;;;;;;;21.47;17.20;;;7.20;99.90;;;;;;5016463;28;20281;-78
2022/11/13 04:33:13;;;;;;;20.53;17.30;;;7.30;99.90;;;;;;5015096;28;20133;-78
2022/11/13 04:35:40;;;;;;;19.80;17.13;;;7.20;99.90;;;;;;5031179;28;20181;-78
2022/11/13 04:38:06;;;;;;;23.47;17.70;;;7.20;99.90;;;;;;5014435;28;20046;-78
2022/11/13 04:40:32;;;;;;;22.37;17.63;;;7.20;99.90;;;;;;5015552;28;20281;-78
2022/11/13 04:42:58;;;;;;;25.20;17.90;;;7.20;99.90;;;;;;5014472;28;20293;-78
2022/11/13 04:45:27;;;;;;;20.87;17.30;;;7.20;99.90;;;;;;5015435;28;20288;-78
2022/11/13 04:47:53;;;;;;;21.57;17.03;;;7.10;99.90;;;;;;5015333;28;20045;-78
2022/11/13 04:50:19;;;;;;;20.47;16.57;;;7.20;99.90;;;;;;5015553;28;20293;-78
2022/11/13 04:52:45;;;;;;;20.10;17.20;;;7.20;99.90;;;;;;5015485;28;20127;-78
2022/11/13 04:55:11;;;;;;;20.87;16.57;;;7.20;99.90;;;;;;5015391;28;20049;-78
2022/11/13 04:57:37;;;;;;;25.43;16.70;;;7.20;99.90;;;;;;5016200;28;20273;-78
2022/11/13 05:00:05;;;;;;;23.33;17.10;;;7.20;99.90;;;;;;5015045;28;20308;-79
2022/11/13 05:02:31;;;;;;;21.57;16.90;;;7.20;99.90;;;;;;5015953;28;20784;-78
2022/11/13 05:04:57;;;;;;;21.03;17.60;;;7.20;99.90;;;;;;5015010;28;20307;-78
2022/11/13 05:07:25;;;;;;;21.83;16.83;;;7.20;99.90;;;;;;5014259;28;20281;-78
2022/11/13 05:09:51;;;;;;;23.47;17.67;;;7.30;99.90;;;;;;5014148;28;20104;-78
2022/11/13 05:12:16;;;;;;;19.07;16.10;;;7.30;99.90;;;;;;5014396;28;20289;-78
2022/11/13 05:14:42;;;;;;;20.27;16.83;;;7.30;99.90;;;;;;5015078;28;20500;-78
2022/11/13 05:17:10;;;;;;;21.27;17.13;;;7.30;99.90;;;;;;5013805;28;20049;-78
2022/11/13 05:19:36;;;;;;;23.93;17.17;;;7.30;99.90;;;;;;5014813;28;20045;-78
2022/11/13 05:22:02;;;;;;;20.87;15.57;;;7.30;99.90;;;;;;5015696;28;20281;-78
2022/11/13 05:24:28;;;;;;;20.97;16.87;;;7.30;99.90;;;;;;5014927;28;20044;-78
2022/11/13 05:26:54;;;;;;;20.83;17.10;;;7.30;99.90;;;;;;5014888;28;20757;-78
2022/11/13 05:29:20;;;;;;;20.83;16.57;;;7.30;99.90;;;;;;5014559;28;20038;-78
2022/11/13 05:31:46;;;;;;;18.37;16.33;;;7.30;99.90;;;;;;5013804;28;20137;-78
2022/11/13 05:34:12;;;;;;;22.23;16.40;;;7.30;99.90;;;;;;5014723;28;20312;-78
2022/11/13 05:36:38;;;;;;;18.63;16.27;;;7.20;99.90;;;;;;5014708;28;20291;-78
2022/11/13 05:39:03;;;;;;;18.43;16.40;;;7.20;99.90;;;;;;5013145;28;20042;-78
2022/11/13 05:41:29;;;;;;;19.87;16.57;;;7.20;99.90;;;;;;4998113;28;20096;-78
2022/11/13 05:43:56;;;;;;;22.37;17.40;;;7.20;99.90;;;;;;5014099;28;20088;-78
2022/11/13 05:46:24;;;;;;;22.40;16.07;;;7.20;99.90;;;;;;5014211;28;20045;-78
2022/11/13 05:48:59;;;;;;;22.00;17.03;;;7.10;99.90;;;;;;5014266;28;20296;-78
2022/11/13 05:51:27;;;;;;;22.63;16.70;;;7.10;99.90;;;;;;5014558;28;20326;-78
2022/11/13 05:53:53;;;;;;;20.07;15.87;;;7.10;99.90;;;;;;5014381;28;20045;-80
2022/11/13 05:56:31;;;;;;;18.03;16.10;;;7.10;99.90;;;;;;5014356;28;20636;-78
2022/11/13 05:58:58;;;;;;;19.50;15.77;;;7.10;99.90;;;;;;5014831;28;20358;-78
2022/11/13 06:01:25;;;;;;;20.63;15.87;;;7.10;99.90;;;;;;5014186;28;20304;-77
2022/11/13 06:03:53;;;;;;;19.13;15.37;;;7.10;99.90;;;;;;5014752;28;20287;-77
2022/11/13 06:06:20;;;;;;;19.23;16.07;;;7.10;99.90;;;;;;5013895;28;20427;-78
2022/11/13 06:08:47;;;;;;;18.83;15.73;;;7.10;99.90;;;;;;5014170;28;20281;-78
2022/11/13 06:11:16;;;;;;;20.90;16.27;;;7.00;99.90;;;;;;5014089;28;20372;-77
2022/11/13 06:13:42;;;;;;;18.50;16.47;;;7.00;99.90;;;;;;5014859;28;20292;-77
2022/11/13 06:16:14;;;;;;;21.67;16.57;;;7.00;99.90;;;;;;5013959;28;20292;-77
2022/11/13 06:18:42;;;;;;;18.70;15.27;;;7.00;99.90;;;;;;5013685;28;20308;-77
2022/11/13 06:21:11;;;;;;;18.73;14.27;;;7.00;99.90;;;;;;5013976;28;20281;-77
2022/11/13 06:23:38;;;;;;;19.20;15.43;;;6.90;99.90;;;;;;5012713;28;20358;-77
2022/11/13 06:26:06;;;;;;;17.40;14.63;;;6.90;99.90;;;;;;5013829;28;20364;-78
2022/11/13 06:28:33;;;;;;;18.70;15.33;;;7.00;99.90;;;;;;5013904;28;20811;-78
2022/11/13 06:31:11;;;;;;;18.80;15.43;;;7.00;99.90;;;;;;5013617;28;20590;-79
2022/11/13 06:33:38;;;;;;;18.37;15.33;;;6.90;99.90;;;;;;5014985;28;20360;-78
2022/11/13 06:36:06;;;;;;;20.93;16.13;;;6.90;99.90;;;;;;5012800;28;20376;-78
2022/11/13 06:38:33;;;;;;;17.50;14.40;;;7.00;99.90;;;;;;5012473;28;20301;-78
2022/11/13 06:40:59;;;;;;;21.98;15.55;;;6.90;99.90;;;;;;4996411;28;20289;-79
2022/11/13 06:43:25;;;;;;;18.87;15.17;;;6.90;99.90;;;;;;5013736;28;20045;-78
2022/11/13 06:45:51;;;;;;;18.53;15.87;;;6.90;99.90;;;;;;5013914;28;20173;-78
2022/11/13 06:48:17;;;;;;;18.20;15.57;;;6.90;99.90;;;;;;5012940;28;20324;-78
2022/11/13 06:50:43;;;;;;;20.07;15.90;;;6.90;99.90;;;;;;5013498;28;20822;-78
2022/11/13 06:53:08;;;;;;;19.97;16.07;;;6.80;99.90;;;;;;5013651;28;20062;-78
2022/11/13 06:55:34;;;;;;;21.73;15.90;;;6.80;99.90;;;;;;5014244;28;20086;-78
2022/11/13 06:58:00;;;;;;;19.83;15.73;;;6.80;99.90;;;;;;5017480;28;20401;-85
2022/11/13 07:00:25;;;;;;;19.17;15.37;;;6.80;99.90;;;;;;5016168;28;20509;-78
2022/11/13 07:02:51;;;;;;;18.00;14.57;;;6.70;99.90;;;;;;5017375;28;20109;-78
2022/11/13 07:05:17;;;;;;;21.67;16.43;;;6.70;99.90;;;;;;5016476;28;20053;-79
2022/11/13 07:07:43;;;;;;;17.93;15.20;;;6.70;99.90;;;;;;5017938;28;20139;-78
2022/11/13 07:10:08;;;;;;;18.03;15.17;;;6.70;99.90;;;;;;5017293;28;20050;-78
2022/11/13 07:12:34;;;;;;;18.37;14.70;;;6.70;99.90;;;;;;5017318;28;20124;-78
2022/11/13 07:15:00;;;;;;;21.63;15.57;;;6.70;99.90;;;;;;5016195;28;20764;-78
2022/11/13 07:17:27;;;;;;;19.67;15.47;;;6.70;99.90;;;;;;5017995;28;20417;-78
2022/11/13 07:19:53;;;;;;;20.80;15.57;;;6.70;99.90;;;;;;5017145;28;20088;-79
2022/11/13 07:22:19;;;;;;;21.10;16.33;;;6.60;99.90;;;;;;5017128;28;20280;-79
2022/11/13 07:24:45;;;;;;;27.03;15.97;;;6.70;99.90;;;;;;5016081;28;20052;-79
2022/11/13 07:27:10;;;;;;;21.90;15.90;;;6.60;99.90;;;;;;5015733;28;20042;-78
2022/11/13 07:29:37;;;;;;;19.20;14.80;;;6.70;99.90;;;;;;5016763;28;20041;-79
2022/11/13 07:32:04;;;;;;;19.47;15.80;;;6.60;99.90;;;;;;5016914;28;20054;-85
2022/11/13 07:34:29;;;;;;;20.88;15.20;;;6.70;99.90;;;;;;5016935;28;20277;-77
2022/11/13 07:36:55;;;;;;;20.20;15.40;;;6.70;99.90;;;;;;5016617;28;20054;-78
2022/11/13 07:39:21;;;;;;;19.57;15.87;;;6.70;99.90;;;;;;4999592;28;20045;-78
2022/11/13 07:41:47;;;;;;;21.43;15.60;;;6.70;99.90;;;;;;5016020;28;20053;-76
2022/11/13 07:44:13;;;;;;;20.60;15.33;;;6.80;99.90;;;;;;5016763;28;20108;-77
2022/11/13 07:46:38;;;;;;;18.97;14.57;;;6.80;99.90;;;;;;5016699;28;20708;-77
2022/11/13 07:49:04;;;;;;;17.17;14.40;;;6.80;99.90;;;;;;5016124;28;20049;-76
2022/11/13 07:51:30;;;;;;;18.87;14.37;;;6.80;99.90;;;;;;5015815;28;20046;-77
2022/11/13 07:53:56;;;;;;;20.73;15.50;;;6.90;99.90;;;;;;5017092;28;20296;-77
2022/11/13 07:56:22;;;;;;;17.77;14.23;;;7.00;99.90;;;;;;5015391;28;20042;-77
2022/11/13 07:58:48;;;;;;;18.03;14.30;;;7.00;99.90;;;;;;5017981;28;20433;-76
2022/11/13 08:01:14;;;;;;;20.60;14.77;;;7.00;99.90;;;;;;5015450;28;20100;-77
2022/11/13 08:03:39;;;;;;;18.20;14.33;;;7.10;99.90;;;;;;5016285;28;20316;-76
2022/11/13 08:06:06;;;;;;;20.70;15.43;;;7.10;99.90;;;;;;5015895;28;20050;-76
2022/11/13 08:08:33;;;;;;;25.70;19.03;;;7.20;99.90;;;;;;5015133;28;20129;-75
2022/11/13 08:11:06;;;;;;;18.10;14.33;;;7.10;99.90;;;;;;5016197;28;20292;-74
2022/11/13 08:13:33;;;;;;;19.23;15.20;;;7.30;99.90;;;;;;5016199;28;20284;-75
2022/11/13 08:16:00;;;;;;;17.17;13.80;;;7.40;99.90;;;;;;5015195;28;20289;-75
2022/11/13 08:18:30;;;;;;;17.97;13.80;;;7.40;99.90;;;;;;5016455;28;20644;-75
2022/11/13 08:20:59;;;;;;;18.00;14.07;;;7.50;99.90;;;;;;5015144;28;20299;-75
2022/11/13 08:23:24;;;;;;;18.10;14.33;;;7.60;99.90;;;;;;5016405;28;20281;-75
2022/11/13 08:25:50;;;;;;;17.80;14.10;;;7.60;99.90;;;;;;5015966;28;20771;-75
2022/11/13 08:28:16;;;;;;;16.70;13.57;;;7.70;99.90;;;;;;5015938;28;20042;-75
2022/11/13 08:30:43;;;;;;;16.40;13.20;;;7.80;99.90;;;;;;5015879;28;20081;-75
2022/11/13 08:33:09;;;;;;;17.87;13.73;;;7.80;99.90;;;;;;5015125;28;20046;-74
2022/11/13 08:35:34;;;;;;;18.10;13.77;;;7.90;99.90;;;;;;5014522;28;20649;-75
2022/11/13 08:38:02;;;;;;;16.63;13.97;;;7.90;99.90;;;;;;5015398;28;20065;-75
2022/11/13 08:40:28;;;;;;;18.63;14.27;;;8.00;99.90;;;;;;5015589;28;20129;-78
2022/11/13 08:43:01;;;;;;;18.77;14.17;;;8.10;99.90;;;;;;4998974;28;20436;-74
2022/11/13 08:45:28;;;;;;;16.17;12.60;;;8.20;99.90;;;;;;5015305;28;20103;-75
2022/11/13 08:47:57;;;;;;;19.37;12.93;;;8.20;99.90;;;;;;5014595;28;20277;-75
2022/11/13 08:50:23;;;;;;;16.33;13.33;;;8.30;99.90;;;;;;5014203;28;20387;-75
2022/11/13 08:52:56;;;;;;;18.53;13.20;;;8.40;99.90;;;;;;5015407;28;20276;-76
2022/11/13 08:55:22;;;;;;;16.97;12.80;;;8.50;99.90;;;;;;5014434;28;20084;-76
2022/11/13 08:57:48;;;;;;;16.10;12.53;;;8.50;99.90;;;;;;5015031;28;20791;-75
2022/11/13 09:00:14;;;;;;;14.90;12.13;;;8.60;99.90;;;;;;5013878;28;20370;-82
2022/11/13 09:02:40;;;;;;;14.40;11.87;;;8.60;99.90;;;;;;5015280;28;20288;-75
2022/11/13 09:05:07;;;;;;;14.73;11.43;;;8.70;99.90;;;;;;5014088;28;20285;-75
2022/11/13 09:07:32;;;;;;;14.43;11.17;;;8.80;99.90;;;;;;5014872;28;20482;-77
2022/11/13 09:09:58;;;;;;;13.80;11.57;;;8.80;99.90;;;;;;5015138;28;20287;-76
2022/11/13 09:12:24;;;;;;;14.93;12.10;;;8.90;99.90;;;;;;5015062;28;20049;-76
2022/11/13 09:14:49;;;;;;;13.37;11.63;;;9.00;99.90;;;;;;5015158;28;20137;-74
2022/11/13 09:17:16;;;;;;;17.53;10.67;;;9.00;99.90;;;;;;5015742;28;20413;-75
2022/11/13 09:19:42;;;;;;;15.07;10.97;;;9.10;99.90;;;;;;5014780;28;20045;-75
2022/11/13 09:22:07;;;;;;;13.07;10.50;;;9.20;99.90;;;;;;5014876;28;20280;-78
2022/11/13 09:24:33;;;;;;;11.70;9.80;;;9.20;99.90;;;;;;5013925;28;20285;-77
2022/11/13 09:26:59;;;;;;;13.60;10.10;;;9.30;99.90;;;;;;5015005;28;20061;-75
2022/11/13 09:29:27;;;;;;;12.63;9.57;;;9.40;99.90;;;;;;4998235;28;20133;-74
2022/11/13 09:31:53;;;;;;;12.83;9.60;;;9.40;99.90;;;;;;5015013;28;20200;-73
2022/11/13 09:34:19;;;;;;;13.63;9.63;;;9.50;99.90;;;;;;5014673;28;20281;-74
2022/11/13 09:36:45;;;;;;;12.73;9.27;;;9.50;99.90;;;;;;5015233;28;20280;-75
2022/11/13 09:39:11;;;;;;;13.20;9.90;;;9.50;99.90;;;;;;5013520;28;20312;-74
2022/11/13 09:42:03;;;;;;;14.10;11.00;;;9.50;99.90;;;;;;5014319;28;20494;-74
2022/11/13 09:44:54;;;;;;;13.57;9.70;;;9.60;99.90;;;;;;5015355;28;20054;-75
2022/11/13 09:47:29;;;;;;;11.13;9.40;;;9.60;99.90;;;;;;5014320;28;20354;-81
2022/11/13 09:50:18;;;;;;;12.65;8.73;;;9.70;99.90;;;;;;5013881;28;20636;-75
2022/11/13 09:52:44;;;;;;;12.23;8.83;;;9.70;99.90;;;;;;5013747;28;20140;-75
2022/11/13 09:55:19;;;;;;;10.30;8.00;;;9.80;99.90;;;;;;5014433;28;20342;-75
2022/11/13 09:58:21;;;;;;;10.48;8.27;;;9.90;99.90;;;;;;5014297;28;20732;-75
2022/11/13 10:00:47;;;;;;;9.97;7.60;;;9.90;99.90;;;;;;5012571;28;20081;-74
2022/11/13 10:03:29;;;;;;;10.67;7.93;;;10.00;99.90;;;;;;5014886;28;20304;-74
2022/11/13 10:06:09;;;;;;;12.03;7.53;;;10.00;99.90;;;;;;5014278;28;20356;-74
2022/11/13 10:08:52;;;;;;;11.40;7.63;;;10.10;99.90;;;;;;5014790;28;20277;-74
2022/11/13 10:11:38;;;;;;;10.30;8.57;;;10.10;99.90;;;;;;5014217;28;20281;-74
2022/11/13 10:14:25;;;;;;;14.25;8.05;;;10.20;99.90;;;;;;4997647;28;20288;-74
2022/11/13 10:17:22;;;;;;;10.60;7.73;;;10.30;99.90;;;;;;5014706;28;20038;-75
2022/11/13 10:19:57;;;;;;;11.60;7.97;;;10.40;99.90;;;;;;5004953;28;20773;-73
2022/11/13 10:22:37;;;;;;;10.27;7.22;;;10.40;99.90;;;;;;5014849;28;20285;-77
2022/11/13 10:25:14;;;;;;;10.20;7.27;;;10.50;99.90;;;;;;5013950;28;20050;-76
2022/11/13 10:27:40;;;;;;;13.30;7.73;;;10.50;99.90;;;;;;5013963;28;20281;-75
2022/11/13 10:30:15;;;;;;;9.63;7.70;;;10.60;99.90;;;;;;5012843;28;20368;-75
2022/11/13 10:32:40;;;;;;;10.80;7.68;;;10.60;99.90;;;;;;5013871;28;20050;-76
2022/11/13 10:35:06;;;;;;;10.13;7.40;;;10.70;99.90;;;;;;5014113;28;20267;-75
2022/11/13 10:37:56;;;;;;;25.17;7.43;;;10.70;99.90;;;;;;5013378;28;20447;-75
2022/11/13 10:40:27;;;;;;;12.03;8.17;;;10.70;99.90;;;;;;4996522;28;20041;-77
2022/11/13 10:42:53;;;;;;;11.83;7.83;;;10.80;99.90;;;;;;4996814;28;20292;-77
2022/11/13 10:45:21;;;;;;;10.47;7.87;;;10.80;99.90;;;;;;5013062;28;20657;-75
2022/11/13 10:47:50;;;;;;;9.93;7.07;;;10.90;99.90;;;;;;4996678;28;20297;-70
2022/11/13 10:50:26;;;;;;;11.53;8.03;;;10.90;99.90;;;;;;5013711;28;20277;-70
2022/11/13 10:52:54;;;;;;;11.57;7.80;;;11.00;99.90;;;;;;5013977;28;20281;-73
2022/11/13 10:55:27;;;;;;;10.37;7.03;;;11.10;99.90;;;;;;5013696;28;20277;-75
2022/11/13 10:57:58;;;;;;;14.23;8.27;;;11.10;99.90;;;;;;5012955;28;20380;-80
2022/11/13 11:00:30;;;;;;;9.73;7.03;;;11.20;99.90;;;;;;5012125;28;20427;-73
2022/11/13 11:02:56;;;;;;;8.80;7.07;;;11.30;99.90;;;;;;5012906;28;20297;-77
2022/11/13 11:05:24;;;;;;;12.43;6.53;;;11.30;99.90;;;;;;5014119;28;20368;-76
2022/11/13 11:07:52;;;;;;;10.10;6.60;;;11.30;99.90;;;;;;5012591;28;20050;-76
2022/11/13 11:10:26;;;;;;;10.27;6.83;;;11.40;99.90;;;;;;5014042;28;20285;-77
2022/11/13 11:13:19;;;;;;;10.83;6.83;;;11.40;99.90;;;;;;5012828;28;20292;-76
2022/11/13 11:15:58;;;;;;;9.93;7.17;;;11.50;99.90;;;;;;5012244;28;20292;-79
2022/11/13 11:18:39;;;;;;;10.60;7.03;;;11.50;99.90;;;;;;5013422;28;20332;-76
2022/11/13 11:21:09;;;;;;;13.07;6.77;;;11.60;99.90;;;;;;5012806;28;20758;-74
2022/11/13 11:24:08;;;;;;;7.80;6.20;;;11.70;99.90;;;;;;5014258;28;20617;-75
2022/11/13 11:27:03;;;;;;;9.23;6.20;;;11.80;99.90;;;;;;5013903;28;20269;-76
2022/11/13 11:29:53;;;;;;;9.38;6.32;;;11.80;99.90;;;;;;5012974;28;20293;-75
2022/11/13 11:32:37;;;;;;;11.67;6.43;;;11.90;99.90;;;;;;5012356;28;20042;-74
2022/11/13 11:35:42;;;;;;;8.70;6.80;;;11.90;99.90;;;;;;5014106;28;20281;-76
2022/11/13 11:38:20;;;;;;;9.03;6.90;;;12.00;99.90;;;;;;5010910;28;20388;-78
2022/11/13 11:40:52;;;;;;;9.90;7.20;;;12.00;99.90;;;;;;5012788;28;20320;-79
2022/11/13 11:43:38;;;;;;;10.00;7.17;;;12.00;99.90;;;;;;5014261;28;20292;-74
2022/11/13 11:46:08;;;;;;;9.60;6.80;;;12.00;99.90;;;;;;5016738;28;20312;-75
2022/11/13 11:48:34;;;;;;;9.80;7.70;;;12.00;99.90;;;;;;5016184;28;20355;-75
2022/11/13 11:51:14;;;;;;;9.10;6.53;;;12.00;99.90;;;;;;5016657;28;20376;-75
2022/11/13 11:53:44;;;;;;;10.57;6.17;;;12.10;99.90;;;;;;5015488;28;20058;-75
2022/11/13 11:56:28;;;;;;;8.77;6.83;;;12.10;99.90;;;;;;5015896;28;20802;-80
2022/11/13 11:59:04;;;;;;;9.37;6.57;;;12.20;99.90;;;;;;5017301;28;20304;-79
2022/11/13 12:01:48;;;;;;;9.83;7.67;;;12.30;99.90;;;;;;5015339;28;20814;-78
2022/11/13 12:04:19;;;;;;;9.73;7.73;;;12.30;99.90;;;;;;5015265;28;20289;-79
2022/11/13 12:06:48;;;;;;;9.17;7.00;;;12.40;99.90;;;;;;5015261;28;20737;-78
2022/11/13 12:09:26;;;;;;;10.00;7.07;;;12.40;99.90;;;;;;5015694;28;20296;-78
2022/11/13 12:12:24;;;;;;;9.57;6.90;;;12.50;99.90;;;;;;5016307;28;20285;-78
2022/11/13 12:14:52;;;;;;;10.23;7.17;;;12.50;99.90;;;;;;5015787;28;20292;-79
2022/11/13 12:17:49;;;;;;;9.37;7.27;;;12.60;99.90;;;;;;5015067;28;20277;-77
2022/11/13 12:20:38;;;;;;;9.97;7.53;;;12.50;99.90;;;;;;5015759;28;20315;-77
2022/11/13 12:23:22;;;;;;;11.60;6.20;;;12.60;99.90;;;;;;5015418;28;20367;-78
2022/11/13 12:26:18;;;;;;;9.00;6.50;;;12.60;99.90;;;;;;5016602;28;20286;-80
2022/11/13 12:28:56;;;;;;;9.48;6.63;;;12.60;99.90;;;;;;5014232;28;20057;-80
2022/11/13 12:31:57;;;;;;;9.33;6.20;;;12.60;99.90;;;;;;5014937;28;20053;-79
2022/11/13 12:34:48;;;;;;;10.03;6.77;;;12.70;99.90;;;;;;4981053;28;20296;-74
2022/11/13 12:37:21;;;;;;;8.60;6.33;;;12.70;99.90;;;;;;5014818;28;20308;-75
2022/11/13 12:40:02;;;;;;;8.33;6.30;;;12.70;99.90;;;;;;5016237;28;20336;-74
2022/11/13 12:42:48;;;;;;;9.07;6.17;;;12.80;99.90;;;;;;5015452;28;20784;-76
2022/11/13 12:45:48;;;;;;;8.50;6.20;;;12.80;99.90;;;;;;5015516;28;20376;-75
2022/11/13 12:48:16;;;;;;;7.60;5.23;;;12.80;99.90;;;;;;5014690;28;20288;-78
2022/11/13 12:50:42;;;;;;;8.33;6.17;;;12.90;99.90;;;;;;5015819;28;20367;-77